sensor_id;sensor_type;location;lat;lon;timestamp;P1;durP1;ratioP1;P2;durP2;ratioP2
9372;SDS011;10838;52.350;9.790;2023-05-10T00:02:24;3.87;;;2.63;;
9372;SDS011;10838;52.350;9.790;2023-05-10T00:04:51;4.00;;;2.57;;
9372;SDS011;10838;52.350;9.790;2023-05-10T00:07:18;4.40;;;2.70;;
9372;SDS011;10838;52.350;9.790;2023-05-10T00:09:44;2.93;;;2.43;;
9372;SDS011;10838;52.350;9.790;2023-05-10T00:12:11;3.47;;;2.80;;
9372;SDS011;10838;52.350;9.790;2023-05-10T00:14:39;3.27;;;2.47;;
9372;SDS011;10838;52.350;9.790;2023-05-10T00:17:05;2.77;;;2.57;;
9372;SDS011;10838;52.350;9.790;2023-05-10T00:19:32;3.37;;;2.30;;
9372;SDS011;10838;52.350;9.790;2023-05-10T00:21:58;2.40;;;2.20;;
9372;SDS011;10838;52.350;9.790;2023-05-10T00:24:25;2.73;;;2.27;;
9372;SDS011;10838;52.350;9.790;2023-05-10T00:26:51;2.60;;;2.40;;
9372;SDS011;10838;52.350;9.790;2023-05-10T00:29:18;3.00;;;2.80;;
9372;SDS011;10838;52.350;9.790;2023-05-10T00:31:46;3.43;;;2.40;;
9372;SDS011;10838;52.350;9.790;2023-05-10T00:34:12;2.47;;;2.20;;
9372;SDS011;10838;52.350;9.790;2023-05-10T00:36:39;4.40;;;2.93;;
9372;SDS011;10838;52.350;9.790;2023-05-10T00:39:05;3.80;;;2.60;;
9372;SDS011;10838;52.350;9.790;2023-05-10T00:41:32;5.50;;;2.80;;
9372;SDS011;10838;52.350;9.790;2023-05-10T00:43:59;2.80;;;2.57;;
9372;SDS011;10838;52.350;9.790;2023-05-10T00:46:27;3.10;;;2.80;;
9372;SDS011;10838;52.350;9.790;2023-05-10T00:48:55;5.17;;;3.00;;
9372;SDS011;10838;52.350;9.790;2023-05-10T00:51:22;3.63;;;2.30;;
9372;SDS011;10838;52.350;9.790;2023-05-10T00:53:49;2.97;;;2.70;;
9372;SDS011;10838;52.350;9.790;2023-05-10T00:56:16;4.70;;;2.40;;
9372;SDS011;10838;52.350;9.790;2023-05-10T00:58:43;3.00;;;2.70;;
9372;SDS011;10838;52.350;9.790;2023-05-10T01:01:09;2.33;;;2.23;;
9372;SDS011;10838;52.350;9.790;2023-05-10T01:03:37;2.80;;;2.47;;
9372;SDS011;10838;52.350;9.790;2023-05-10T01:06:06;3.90;;;2.80;;
9372;SDS011;10838;52.350;9.790;2023-05-10T01:08:34;2.80;;;2.60;;
9372;SDS011;10838;52.350;9.790;2023-05-10T01:11:01;3.23;;;2.93;;
9372;SDS011;10838;52.350;9.790;2023-05-10T01:13:30;3.33;;;2.93;;
9372;SDS011;10838;52.350;9.790;2023-05-10T01:15:59;4.83;;;3.33;;
9372;SDS011;10838;52.350;9.790;2023-05-10T01:18:27;3.43;;;3.13;;
9372;SDS011;10838;52.350;9.790;2023-05-10T01:20:57;3.90;;;3.20;;
9372;SDS011;10838;52.350;9.790;2023-05-10T01:23:34;4.70;;;3.00;;
9372;SDS011;10838;52.350;9.790;2023-05-10T01:26:17;3.63;;;3.27;;
9372;SDS011;10838;52.350;9.790;2023-05-10T01:29:14;3.53;;;3.23;;
9372;SDS011;10838;52.350;9.790;2023-05-10T01:32:10;3.50;;;3.20;;
9372;SDS011;10838;52.350;9.790;2023-05-10T01:34:46;3.87;;;2.90;;
9372;SDS011;10838;52.350;9.790;2023-05-10T01:37:20;3.37;;;3.17;;
9372;SDS011;10838;52.350;9.790;2023-05-10T01:39:52;4.30;;;3.07;;
9372;SDS011;10838;52.350;9.790;2023-05-10T01:42:26;3.63;;;3.33;;
9372;SDS011;10838;52.350;9.790;2023-05-10T01:45:00;7.23;;;3.10;;
9372;SDS011;10838;52.350;9.790;2023-05-10T01:47:35;3.90;;;3.50;;
9372;SDS011;10838;52.350;9.790;2023-05-10T01:50:06;4.60;;;3.20;;
9372;SDS011;10838;52.350;9.790;2023-05-10T01:52:41;4.67;;;3.40;;
9372;SDS011;10838;52.350;9.790;2023-05-10T01:55:11;3.67;;;3.37;;
9372;SDS011;10838;52.350;9.790;2023-05-10T01:57:42;9.07;;;3.70;;
9372;SDS011;10838;52.350;9.790;2023-05-10T02:00:11;5.40;;;3.70;;
9372;SDS011;10838;52.350;9.790;2023-05-10T02:02:41;3.87;;;3.60;;
9372;SDS011;10838;52.350;9.790;2023-05-10T02:05:11;4.80;;;3.50;;
9372;SDS011;10838;52.350;9.790;2023-05-10T02:07:40;4.33;;;3.80;;
9372;SDS011;10838;52.350;9.790;2023-05-10T02:10:08;3.90;;;3.30;;
9372;SDS011;10838;52.350;9.790;2023-05-10T02:12:36;4.10;;;3.73;;
9372;SDS011;10838;52.350;9.790;2023-05-10T02:15:07;6.27;;;4.00;;
9372;SDS011;10838;52.350;9.790;2023-05-10T02:17:35;4.07;;;3.63;;
9372;SDS011;10838;52.350;9.790;2023-05-10T02:20:04;8.13;;;4.20;;
9372;SDS011;10838;52.350;9.790;2023-05-10T02:22:33;8.30;;;3.87;;
9372;SDS011;10838;52.350;9.790;2023-05-10T02:25:03;6.10;;;3.97;;
9372;SDS011;10838;52.350;9.790;2023-05-10T02:27:31;5.17;;;4.07;;
9372;SDS011;10838;52.350;9.790;2023-05-10T02:29:58;5.30;;;3.70;;
9372;SDS011;10838;52.350;9.790;2023-05-10T02:32:26;4.10;;;3.80;;
9372;SDS011;10838;52.350;9.790;2023-05-10T02:34:54;4.87;;;4.27;;
9372;SDS011;10838;52.350;9.790;2023-05-10T02:37:24;4.33;;;4.00;;
9372;SDS011;10838;52.350;9.790;2023-05-10T02:39:53;5.67;;;4.23;;
9372;SDS011;10838;52.350;9.790;2023-05-10T02:42:23;3.77;;;3.47;;
9372;SDS011;10838;52.350;9.790;2023-05-10T02:44:52;7.27;;;4.00;;
9372;SDS011;10838;52.350;9.790;2023-05-10T02:47:20;11.60;;;4.03;;
9372;SDS011;10838;52.350;9.790;2023-05-10T02:49:47;4.50;;;4.10;;
9372;SDS011;10838;52.350;9.790;2023-05-10T02:52:14;6.73;;;4.47;;
9372;SDS011;10838;52.350;9.790;2023-05-10T02:54:48;4.93;;;4.53;;
9372;SDS011;10838;52.350;9.790;2023-05-10T02:57:20;6.03;;;4.30;;
9372;SDS011;10838;52.350;9.790;2023-05-10T02:59:57;6.10;;;3.80;;
9372;SDS011;10838;52.350;9.790;2023-05-10T03:02:25;5.07;;;4.63;;
9372;SDS011;10838;52.350;9.790;2023-05-10T03:04:51;4.63;;;4.23;;
9372;SDS011;10838;52.350;9.790;2023-05-10T03:07:18;7.07;;;4.23;;
9372;SDS011;10838;52.350;9.790;2023-05-10T03:09:47;4.67;;;4.27;;
9372;SDS011;10838;52.350;9.790;2023-05-10T03:12:15;4.67;;;4.13;;
9372;SDS011;10838;52.350;9.790;2023-05-10T03:14:53;6.97;;;4.67;;
9372;SDS011;10838;52.350;9.790;2023-05-10T03:17:25;4.37;;;3.97;;
9372;SDS011;10838;52.350;9.790;2023-05-10T03:19:56;5.33;;;4.77;;
9372;SDS011;10838;52.350;9.790;2023-05-10T03:22:30;9.73;;;4.80;;
9372;SDS011;10838;52.350;9.790;2023-05-10T03:25:00;4.77;;;4.37;;
9372;SDS011;10838;52.350;9.790;2023-05-10T03:27:31;7.00;;;4.63;;
9372;SDS011;10838;52.350;9.790;2023-05-10T03:30:00;5.90;;;4.80;;
9372;SDS011;10838;52.350;9.790;2023-05-10T03:32:28;7.00;;;4.73;;
9372;SDS011;10838;52.350;9.790;2023-05-10T03:34:55;6.97;;;4.93;;
9372;SDS011;10838;52.350;9.790;2023-05-10T03:37:21;6.57;;;4.90;;
9372;SDS011;10838;52.350;9.790;2023-05-10T03:39:48;5.87;;;4.87;;
9372;SDS011;10838;52.350;9.790;2023-05-10T03:42:16;6.37;;;5.23;;
9372;SDS011;10838;52.350;9.790;2023-05-10T03:44:43;5.53;;;5.07;;
9372;SDS011;10838;52.350;9.790;2023-05-10T03:47:09;6.83;;;4.73;;
9372;SDS011;10838;52.350;9.790;2023-05-10T03:49:36;6.07;;;5.20;;
9372;SDS011;10838;52.350;9.790;2023-05-10T03:52:02;7.80;;;5.43;;
9372;SDS011;10838;52.350;9.790;2023-05-10T03:54:30;9.37;;;5.20;;
9372;SDS011;10838;52.350;9.790;2023-05-10T03:56:57;5.93;;;5.00;;
9372;SDS011;10838;52.350;9.790;2023-05-10T03:59:24;6.23;;;5.40;;
9372;SDS011;10838;52.350;9.790;2023-05-10T04:01:51;8.07;;;5.20;;
9372;SDS011;10838;52.350;9.790;2023-05-10T04:04:18;6.57;;;5.03;;
9372;SDS011;10838;52.350;9.790;2023-05-10T04:06:45;5.97;;;5.20;;
9372;SDS011;10838;52.350;9.790;2023-05-10T04:09:12;5.07;;;4.57;;
9372;SDS011;10838;52.350;9.790;2023-05-10T04:11:39;5.43;;;4.90;;
9372;SDS011;10838;52.350;9.790;2023-05-10T04:14:05;5.80;;;5.30;;
9372;SDS011;10838;52.350;9.790;2023-05-10T04:16:33;6.23;;;5.17;;
9372;SDS011;10838;52.350;9.790;2023-05-10T04:18:59;6.17;;;5.57;;
9372;SDS011;10838;52.350;9.790;2023-05-10T04:21:26;5.53;;;5.03;;
9372;SDS011;10838;52.350;9.790;2023-05-10T04:23:53;7.83;;;5.70;;
9372;SDS011;10838;52.350;9.790;2023-05-10T04:26:19;6.73;;;5.97;;
9372;SDS011;10838;52.350;9.790;2023-05-10T04:28:46;8.00;;;4.97;;
9372;SDS011;10838;52.350;9.790;2023-05-10T04:31:13;8.93;;;5.63;;
9372;SDS011;10838;52.350;9.790;2023-05-10T04:33:41;6.57;;;5.73;;
9372;SDS011;10838;52.350;9.790;2023-05-10T04:36:08;7.17;;;6.33;;
9372;SDS011;10838;52.350;9.790;2023-05-10T04:38:34;6.10;;;5.43;;
9372;SDS011;10838;52.350;9.790;2023-05-10T04:41:04;6.13;;;5.57;;
9372;SDS011;10838;52.350;9.790;2023-05-10T04:43:32;6.03;;;5.60;;
9372;SDS011;10838;52.350;9.790;2023-05-10T04:45:58;6.40;;;5.67;;
9372;SDS011;10838;52.350;9.790;2023-05-10T04:48:25;6.60;;;6.00;;
9372;SDS011;10838;52.350;9.790;2023-05-10T04:50:53;7.87;;;6.20;;
9372;SDS011;10838;52.350;9.790;2023-05-10T04:53:19;6.27;;;5.67;;
9372;SDS011;10838;52.350;9.790;2023-05-10T04:55:46;6.70;;;6.07;;
9372;SDS011;10838;52.350;9.790;2023-05-10T04:58:13;7.00;;;5.83;;
9372;SDS011;10838;52.350;9.790;2023-05-10T05:00:39;8.47;;;6.07;;
9372;SDS011;10838;52.350;9.790;2023-05-10T05:03:06;6.33;;;5.77;;
9372;SDS011;10838;52.350;9.790;2023-05-10T05:05:33;8.07;;;6.23;;
9372;SDS011;10838;52.350;9.790;2023-05-10T05:08:01;12.10;;;7.17;;
9372;SDS011;10838;52.350;9.790;2023-05-10T05:10:27;8.57;;;6.03;;
9372;SDS011;10838;52.350;9.790;2023-05-10T05:12:54;7.23;;;6.57;;
9372;SDS011;10838;52.350;9.790;2023-05-10T05:15:21;7.83;;;7.03;;
9372;SDS011;10838;52.350;9.790;2023-05-10T05:17:48;8.07;;;6.83;;
9372;SDS011;10838;52.350;9.790;2023-05-10T05:20:15;7.10;;;6.37;;
9372;SDS011;10838;52.350;9.790;2023-05-10T05:22:42;7.83;;;6.43;;
9372;SDS011;10838;52.350;9.790;2023-05-10T05:25:10;7.47;;;6.10;;
9372;SDS011;10838;52.350;9.790;2023-05-10T05:27:36;13.47;;;8.43;;
9372;SDS011;10838;52.350;9.790;2023-05-10T05:30:03;16.77;;;10.83;;
9372;SDS011;10838;52.350;9.790;2023-05-10T05:32:31;15.77;;;10.27;;
9372;SDS011;10838;52.350;9.790;2023-05-10T05:34:58;8.77;;;7.07;;
9372;SDS011;10838;52.350;9.790;2023-05-10T05:37:24;7.47;;;6.60;;
9372;SDS011;10838;52.350;9.790;2023-05-10T05:39:51;8.90;;;5.90;;
9372;SDS011;10838;52.350;9.790;2023-05-10T05:42:20;6.90;;;6.20;;
9372;SDS011;10838;52.350;9.790;2023-05-10T05:44:47;7.73;;;6.27;;
9372;SDS011;10838;52.350;9.790;2023-05-10T05:47:14;7.83;;;5.83;;
9372;SDS011;10838;52.350;9.790;2023-05-10T05:49:40;9.77;;;6.13;;
9372;SDS011;10838;52.350;9.790;2023-05-10T05:52:07;10.80;;;6.33;;
9372;SDS011;10838;52.350;9.790;2023-05-10T05:54:33;6.43;;;5.83;;
9372;SDS011;10838;52.350;9.790;2023-05-10T05:57:00;6.67;;;5.77;;
9372;SDS011;10838;52.350;9.790;2023-05-10T05:59:28;7.60;;;6.13;;
9372;SDS011;10838;52.350;9.790;2023-05-10T06:01:54;8.20;;;6.10;;
9372;SDS011;10838;52.350;9.790;2023-05-10T06:04:21;6.60;;;5.93;;
9372;SDS011;10838;52.350;9.790;2023-05-10T06:06:47;6.40;;;5.80;;
9372;SDS011;10838;52.350;9.790;2023-05-10T06:09:14;10.50;;;6.00;;
9372;SDS011;10838;52.350;9.790;2023-05-10T06:11:41;6.90;;;6.30;;
9372;SDS011;10838;52.350;9.790;2023-05-10T06:14:08;9.93;;;5.80;;
9372;SDS011;10838;52.350;9.790;2023-05-10T06:16:35;7.73;;;5.80;;
9372;SDS011;10838;52.350;9.790;2023-05-10T06:19:02;9.40;;;6.20;;
9372;SDS011;10838;52.350;9.790;2023-05-10T06:21:29;7.97;;;5.90;;
9372;SDS011;10838;52.350;9.790;2023-05-10T06:23:56;8.30;;;6.63;;
9372;SDS011;10838;52.350;9.790;2023-05-10T06:26:22;8.47;;;6.87;;
9372;SDS011;10838;52.350;9.790;2023-05-10T06:28:49;10.17;;;7.03;;
9372;SDS011;10838;52.350;9.790;2023-05-10T06:31:15;6.73;;;6.03;;
9372;SDS011;10838;52.350;9.790;2023-05-10T06:33:44;6.40;;;5.80;;
9372;SDS011;10838;52.350;9.790;2023-05-10T06:36:10;7.20;;;6.50;;
9372;SDS011;10838;52.350;9.790;2023-05-10T06:38:38;6.27;;;5.77;;
9372;SDS011;10838;52.350;9.790;2023-05-10T06:41:04;14.43;;;6.13;;
9372;SDS011;10838;52.350;9.790;2023-05-10T06:43:31;9.83;;;6.43;;
9372;SDS011;10838;52.350;9.790;2023-05-10T06:45:57;9.83;;;6.27;;
9372;SDS011;10838;52.350;9.790;2023-05-10T06:48:24;11.80;;;6.27;;
9372;SDS011;10838;52.350;9.790;2023-05-10T06:50:52;7.93;;;6.00;;
9372;SDS011;10838;52.350;9.790;2023-05-10T06:53:18;7.87;;;5.50;;
9372;SDS011;10838;52.350;9.790;2023-05-10T06:55:45;13.43;;;6.43;;
9372;SDS011;10838;52.350;9.790;2023-05-10T06:58:11;16.47;;;6.23;;
9372;SDS011;10838;52.350;9.790;2023-05-10T07:00:38;8.20;;;6.10;;
9372;SDS011;10838;52.350;9.790;2023-05-10T07:03:07;8.67;;;6.53;;
9372;SDS011;10838;52.350;9.790;2023-05-10T07:05:34;15.73;;;6.27;;
9372;SDS011;10838;52.350;9.790;2023-05-10T07:08:02;7.70;;;6.20;;
9372;SDS011;10838;52.350;9.790;2023-05-10T07:10:29;6.70;;;5.97;;
9372;SDS011;10838;52.350;9.790;2023-05-10T07:12:55;7.30;;;6.27;;
9372;SDS011;10838;52.350;9.790;2023-05-10T07:15:22;8.30;;;6.57;;
9372;SDS011;10838;52.350;9.790;2023-05-10T07:17:49;6.80;;;6.20;;
9372;SDS011;10838;52.350;9.790;2023-05-10T07:20:16;10.27;;;6.77;;
9372;SDS011;10838;52.350;9.790;2023-05-10T07:22:43;10.43;;;6.27;;
9372;SDS011;10838;52.350;9.790;2023-05-10T07:25:11;9.13;;;6.33;;
9372;SDS011;10838;52.350;9.790;2023-05-10T07:27:38;7.67;;;6.43;;
9372;SDS011;10838;52.350;9.790;2023-05-10T07:30:05;7.13;;;6.40;;
9372;SDS011;10838;52.350;9.790;2023-05-10T07:32:32;7.13;;;6.03;;
9372;SDS011;10838;52.350;9.790;2023-05-10T07:34:58;7.57;;;6.87;;
9372;SDS011;10838;52.350;9.790;2023-05-10T07:37:25;7.47;;;6.83;;
9372;SDS011;10838;52.350;9.790;2023-05-10T07:39:52;7.33;;;6.50;;
9372;SDS011;10838;52.350;9.790;2023-05-10T07:42:19;7.03;;;6.43;;
9372;SDS011;10838;52.350;9.790;2023-05-10T07:44:46;10.33;;;6.47;;
9372;SDS011;10838;52.350;9.790;2023-05-10T07:47:12;6.73;;;6.13;;
9372;SDS011;10838;52.350;9.790;2023-05-10T07:49:39;7.57;;;6.27;;
9372;SDS011;10838;52.350;9.790;2023-05-10T07:52:05;6.10;;;5.60;;
9372;SDS011;10838;52.350;9.790;2023-05-10T07:54:32;7.00;;;6.33;;
9372;SDS011;10838;52.350;9.790;2023-05-10T07:56:59;6.77;;;6.10;;
9372;SDS011;10838;52.350;9.790;2023-05-10T07:59:27;6.73;;;5.90;;
9372;SDS011;10838;52.350;9.790;2023-05-10T08:01:54;6.00;;;5.60;;
9372;SDS011;10838;52.350;9.790;2023-05-10T08:04:21;6.63;;;6.03;;
9372;SDS011;10838;52.350;9.790;2023-05-10T08:06:47;6.93;;;5.87;;
9372;SDS011;10838;52.350;9.790;2023-05-10T08:09:14;6.73;;;5.40;;
9372;SDS011;10838;52.350;9.790;2023-05-10T08:11:42;6.60;;;5.23;;
9372;SDS011;10838;52.350;9.790;2023-05-10T08:14:09;6.57;;;4.57;;
9372;SDS011;10838;52.350;9.790;2023-05-10T08:16:37;4.30;;;3.93;;
9372;SDS011;10838;52.350;9.790;2023-05-10T08:19:03;5.60;;;3.73;;
9372;SDS011;10838;52.350;9.790;2023-05-10T08:21:30;5.23;;;3.33;;
9372;SDS011;10838;52.350;9.790;2023-05-10T08:23:57;7.40;;;3.50;;
9372;SDS011;10838;52.350;9.790;2023-05-10T08:26:23;4.70;;;2.87;;
9372;SDS011;10838;52.350;9.790;2023-05-10T08:28:50;2.70;;;2.50;;
9372;SDS011;10838;52.350;9.790;2023-05-10T08:31:17;2.20;;;2.10;;
9372;SDS011;10838;52.350;9.790;2023-05-10T08:33:45;2.20;;;2.10;;
9372;SDS011;10838;52.350;9.790;2023-05-10T08:36:12;2.23;;;1.97;;
9372;SDS011;10838;52.350;9.790;2023-05-10T08:38:44;1.90;;;1.80;;
9372;SDS011;10838;52.350;9.790;2023-05-10T08:41:11;1.60;;;1.50;;
9372;SDS011;10838;52.350;9.790;2023-05-10T08:43:37;3.27;;;1.73;;
9372;SDS011;10838;52.350;9.790;2023-05-10T08:46:06;2.23;;;2.00;;
9372;SDS011;10838;52.350;9.790;2023-05-10T08:48:35;1.37;;;1.37;;
9372;SDS011;10838;52.350;9.790;2023-05-10T08:51:04;1.90;;;1.80;;
9372;SDS011;10838;52.350;9.790;2023-05-10T08:53:32;1.83;;;1.73;;
9372;SDS011;10838;52.350;9.790;2023-05-10T08:56:02;2.20;;;2.10;;
9372;SDS011;10838;52.350;9.790;2023-05-10T08:58:29;2.10;;;1.93;;
9372;SDS011;10838;52.350;9.790;2023-05-10T09:00:55;1.90;;;1.80;;
9372;SDS011;10838;52.350;9.790;2023-05-10T09:03:23;2.10;;;2.03;;
9372;SDS011;10838;52.350;9.790;2023-05-10T09:05:50;1.90;;;1.80;;
9372;SDS011;10838;52.350;9.790;2023-05-10T09:08:18;1.87;;;1.83;;
9372;SDS011;10838;52.350;9.790;2023-05-10T09:10:46;2.20;;;2.10;;
9372;SDS011;10838;52.350;9.790;2023-05-10T09:13:13;2.03;;;1.93;;
9372;SDS011;10838;52.350;9.790;2023-05-10T09:15:41;2.00;;;1.90;;
9372;SDS011;10838;52.350;9.790;2023-05-10T09:18:07;2.20;;;2.10;;
9372;SDS011;10838;52.350;9.790;2023-05-10T09:20:34;1.73;;;1.73;;
9372;SDS011;10838;52.350;9.790;2023-05-10T09:23:00;3.77;;;1.90;;
9372;SDS011;10838;52.350;9.790;2023-05-10T09:25:28;1.90;;;1.80;;
9372;SDS011;10838;52.350;9.790;2023-05-10T09:27:55;1.67;;;1.63;;
9372;SDS011;10838;52.350;9.790;2023-05-10T09:30:23;2.00;;;1.90;;
9372;SDS011;10838;52.350;9.790;2023-05-10T09:32:51;2.37;;;2.17;;
9372;SDS011;10838;52.350;9.790;2023-05-10T09:35:18;1.97;;;1.87;;
9372;SDS011;10838;52.350;9.790;2023-05-10T09:37:48;3.97;;;2.30;;
9372;SDS011;10838;52.350;9.790;2023-05-10T09:40:16;1.97;;;1.87;;
9372;SDS011;10838;52.350;9.790;2023-05-10T09:42:52;2.03;;;1.93;;
9372;SDS011;10838;52.350;9.790;2023-05-10T09:45:20;1.97;;;1.87;;
9372;SDS011;10838;52.350;9.790;2023-05-10T09:47:47;4.83;;;2.23;;
9372;SDS011;10838;52.350;9.790;2023-05-10T09:50:14;2.30;;;2.20;;
9372;SDS011;10838;52.350;9.790;2023-05-10T09:52:47;2.00;;;1.90;;
9372;SDS011;10838;52.350;9.790;2023-05-10T09:55:16;2.30;;;2.10;;
9372;SDS011;10838;52.350;9.790;2023-05-10T09:57:43;2.30;;;2.20;;
9372;SDS011;10838;52.350;9.790;2023-05-10T10:00:12;2.20;;;2.10;;
9372;SDS011;10838;52.350;9.790;2023-05-10T10:02:44;2.43;;;2.27;;
9372;SDS011;10838;52.350;9.790;2023-05-10T10:05:12;2.40;;;2.20;;
9372;SDS011;10838;52.350;9.790;2023-05-10T10:07:39;2.70;;;2.50;;
9372;SDS011;10838;52.350;9.790;2023-05-10T10:10:07;2.20;;;2.10;;
9372;SDS011;10838;52.350;9.790;2023-05-10T10:12:36;3.00;;;2.33;;
9372;SDS011;10838;52.350;9.790;2023-05-10T10:15:03;2.60;;;2.40;;
9372;SDS011;10838;52.350;9.790;2023-05-10T10:17:32;2.40;;;2.30;;
9372;SDS011;10838;52.350;9.790;2023-05-10T10:20:02;2.60;;;2.40;;
9372;SDS011;10838;52.350;9.790;2023-05-10T10:22:29;2.63;;;2.50;;
9372;SDS011;10838;52.350;9.790;2023-05-10T10:24:55;2.97;;;2.77;;
9372;SDS011;10838;52.350;9.790;2023-05-10T10:27:23;2.87;;;2.50;;
9372;SDS011;10838;52.350;9.790;2023-05-10T10:29:58;6.07;;;2.53;;
9372;SDS011;10838;52.350;9.790;2023-05-10T10:32:32;4.40;;;3.10;;
9372;SDS011;10838;52.350;9.790;2023-05-10T10:35:06;2.77;;;2.50;;
9372;SDS011;10838;52.350;9.790;2023-05-10T10:37:41;3.93;;;3.00;;
9372;SDS011;10838;52.350;9.790;2023-05-10T10:40:22;3.33;;;3.10;;
9372;SDS011;10838;52.350;9.790;2023-05-10T10:42:50;2.97;;;2.73;;
9372;SDS011;10838;52.350;9.790;2023-05-10T10:45:16;2.47;;;2.27;;
9372;SDS011;10838;52.350;9.790;2023-05-10T10:47:44;3.30;;;2.43;;
9372;SDS011;10838;52.350;9.790;2023-05-10T10:50:11;3.00;;;2.70;;
9372;SDS011;10838;52.350;9.790;2023-05-10T10:52:38;2.87;;;2.63;;
9372;SDS011;10838;52.350;9.790;2023-05-10T10:55:06;3.27;;;2.93;;
9372;SDS011;10838;52.350;9.790;2023-05-10T10:57:45;2.77;;;2.57;;
9372;SDS011;10838;52.350;9.790;2023-05-10T11:00:23;3.33;;;2.87;;
9372;SDS011;10838;52.350;9.790;2023-05-10T11:02:57;2.67;;;2.47;;
9372;SDS011;10838;52.350;9.790;2023-05-10T11:08:11;4.07;;;2.40;;
9372;SDS011;10838;52.350;9.790;2023-05-10T11:10:52;3.00;;;2.67;;
9372;SDS011;10838;52.350;9.790;2023-05-10T11:13:29;2.00;;;1.90;;
9372;SDS011;10838;52.350;9.790;2023-05-10T11:15:57;2.50;;;2.30;;
9372;SDS011;10838;52.350;9.790;2023-05-10T11:18:26;4.00;;;3.07;;
9372;SDS011;10838;52.350;9.790;2023-05-10T11:20:56;2.60;;;2.50;;
9372;SDS011;10838;52.350;9.790;2023-05-10T11:23:24;3.30;;;3.00;;
9372;SDS011;10838;52.350;9.790;2023-05-10T11:25:55;2.93;;;2.53;;
9372;SDS011;10838;52.350;9.790;2023-05-10T11:28:22;3.10;;;2.80;;
9372;SDS011;10838;52.350;9.790;2023-05-10T11:30:49;4.07;;;2.90;;
9372;SDS011;10838;52.350;9.790;2023-05-10T11:33:16;3.20;;;2.67;;
9372;SDS011;10838;52.350;9.790;2023-05-10T11:35:45;4.50;;;2.70;;
9372;SDS011;10838;52.350;9.790;2023-05-10T11:38:12;3.27;;;3.00;;
9372;SDS011;10838;52.350;9.790;2023-05-10T11:40:40;3.50;;;3.20;;
9372;SDS011;10838;52.350;9.790;2023-05-10T11:43:08;3.13;;;2.93;;
9372;SDS011;10838;52.350;9.790;2023-05-10T11:45:35;4.90;;;3.60;;
9372;SDS011;10838;52.350;9.790;2023-05-10T11:48:03;5.90;;;3.37;;
9372;SDS011;10838;52.350;9.790;2023-05-10T11:50:30;3.60;;;3.30;;
9372;SDS011;10838;52.350;9.790;2023-05-10T11:52:57;3.57;;;3.27;;
9372;SDS011;10838;52.350;9.790;2023-05-10T11:55:24;3.60;;;3.20;;
9372;SDS011;10838;52.350;9.790;2023-05-10T11:57:51;3.60;;;3.33;;
9372;SDS011;10838;52.350;9.790;2023-05-10T12:00:18;5.07;;;3.67;;
9372;SDS011;10838;52.350;9.790;2023-05-10T12:02:45;3.57;;;3.27;;
9372;SDS011;10838;52.350;9.790;2023-05-10T12:05:12;3.90;;;3.60;;
9372;SDS011;10838;52.350;9.790;2023-05-10T12:07:39;4.40;;;3.40;;
9372;SDS011;10838;52.350;9.790;2023-05-10T12:10:08;5.73;;;3.53;;
9372;SDS011;10838;52.350;9.790;2023-05-10T12:12:37;4.47;;;3.70;;
9372;SDS011;10838;52.350;9.790;2023-05-10T12:15:07;4.00;;;3.70;;
9372;SDS011;10838;52.350;9.790;2023-05-10T12:17:37;4.57;;;4.17;;
9372;SDS011;10838;52.350;9.790;2023-05-10T12:20:14;4.20;;;3.80;;
9372;SDS011;10838;52.350;9.790;2023-05-10T12:22:43;5.13;;;3.90;;
9372;SDS011;10838;52.350;9.790;2023-05-10T12:25:12;4.67;;;4.00;;
9372;SDS011;10838;52.350;9.790;2023-05-10T12:27:39;4.90;;;4.27;;
9372;SDS011;10838;52.350;9.790;2023-05-10T12:30:06;3.90;;;3.53;;
9372;SDS011;10838;52.350;9.790;2023-05-10T12:32:39;4.13;;;3.77;;
9372;SDS011;10838;52.350;9.790;2023-05-10T12:35:07;4.37;;;4.00;;
9372;SDS011;10838;52.350;9.790;2023-05-10T12:37:34;3.97;;;3.60;;
9372;SDS011;10838;52.350;9.790;2023-05-10T12:40:05;4.20;;;3.80;;
9372;SDS011;10838;52.350;9.790;2023-05-10T12:42:35;3.90;;;3.60;;
9372;SDS011;10838;52.350;9.790;2023-05-10T12:45:02;4.67;;;4.27;;
9372;SDS011;10838;52.350;9.790;2023-05-10T12:47:30;8.50;;;4.10;;
9372;SDS011;10838;52.350;9.790;2023-05-10T12:49:57;3.87;;;3.57;;
9372;SDS011;10838;52.350;9.790;2023-05-10T12:52:23;4.93;;;4.53;;
9372;SDS011;10838;52.350;9.790;2023-05-10T12:54:51;5.53;;;4.10;;
9372;SDS011;10838;52.350;9.790;2023-05-10T12:57:17;4.67;;;4.27;;
9372;SDS011;10838;52.350;9.790;2023-05-10T12:59:45;4.23;;;3.70;;
9372;SDS011;10838;52.350;9.790;2023-05-10T13:02:11;4.83;;;3.80;;
9372;SDS011;10838;52.350;9.790;2023-05-10T13:04:39;4.43;;;3.30;;
9372;SDS011;10838;52.350;9.790;2023-05-10T13:07:06;3.90;;;3.60;;
9372;SDS011;10838;52.350;9.790;2023-05-10T13:09:33;7.07;;;3.23;;
9372;SDS011;10838;52.350;9.790;2023-05-10T13:12:00;3.10;;;2.80;;
9372;SDS011;10838;52.350;9.790;2023-05-10T13:14:27;3.03;;;2.80;;
9372;SDS011;10838;52.350;9.790;2023-05-10T13:16:56;3.40;;;3.10;;
9372;SDS011;10838;52.350;9.790;2023-05-10T13:19:23;4.30;;;3.33;;
9372;SDS011;10838;52.350;9.790;2023-05-10T13:21:49;3.30;;;3.10;;
9372;SDS011;10838;52.350;9.790;2023-05-10T13:24:16;3.60;;;3.30;;
9372;SDS011;10838;52.350;9.790;2023-05-10T13:26:43;5.13;;;3.00;;
9372;SDS011;10838;52.350;9.790;2023-05-10T13:29:09;3.43;;;3.13;;
9372;SDS011;10838;52.350;9.790;2023-05-10T13:31:36;3.60;;;3.30;;
9372;SDS011;10838;52.350;9.790;2023-05-10T13:34:04;3.53;;;3.13;;
9372;SDS011;10838;52.350;9.790;2023-05-10T13:36:31;9.57;;;3.53;;
9372;SDS011;10838;52.350;9.790;2023-05-10T13:38:58;3.40;;;3.10;;
9372;SDS011;10838;52.350;9.790;2023-05-10T13:41:26;3.90;;;3.20;;
9372;SDS011;10838;52.350;9.790;2023-05-10T13:43:52;7.67;;;3.43;;
9372;SDS011;10838;52.350;9.790;2023-05-10T13:46:19;4.17;;;3.30;;
9372;SDS011;10838;52.350;9.790;2023-05-10T13:48:45;4.03;;;3.60;;
9372;SDS011;10838;52.350;9.790;2023-05-10T13:51:13;6.27;;;3.30;;
9372;SDS011;10838;52.350;9.790;2023-05-10T13:53:40;4.07;;;3.40;;
9372;SDS011;10838;52.350;9.790;2023-05-10T13:56:06;11.47;;;3.40;;
9372;SDS011;10838;52.350;9.790;2023-05-10T13:58:33;5.60;;;3.67;;
9372;SDS011;10838;52.350;9.790;2023-05-10T14:01:00;4.90;;;3.10;;
9372;SDS011;10838;52.350;9.790;2023-05-10T14:03:27;2.83;;;2.70;;
9372;SDS011;10838;52.350;9.790;2023-05-10T14:05:53;3.20;;;2.97;;
9372;SDS011;10838;52.350;9.790;2023-05-10T14:08:21;5.60;;;3.30;;
9372;SDS011;10838;52.350;9.790;2023-05-10T14:10:48;3.37;;;3.07;;
9372;SDS011;10838;52.350;9.790;2023-05-10T14:13:15;3.03;;;2.83;;
9372;SDS011;10838;52.350;9.790;2023-05-10T14:15:42;3.33;;;3.07;;
9372;SDS011;10838;52.350;9.790;2023-05-10T14:18:08;3.77;;;3.47;;
9372;SDS011;10838;52.350;9.790;2023-05-10T14:20:35;2.90;;;2.70;;
9372;SDS011;10838;52.350;9.790;2023-05-10T14:23:01;3.87;;;3.40;;
9372;SDS011;10838;52.350;9.790;2023-05-10T14:25:29;4.70;;;2.50;;
9372;SDS011;10838;52.350;9.790;2023-05-10T14:27:56;3.47;;;3.13;;
9372;SDS011;10838;52.350;9.790;2023-05-10T14:30:23;2.87;;;2.50;;
9372;SDS011;10838;52.350;9.790;2023-05-10T14:32:50;3.33;;;3.00;;
9372;SDS011;10838;52.350;9.790;2023-05-10T14:35:18;2.97;;;2.77;;
9372;SDS011;10838;52.350;9.790;2023-05-10T14:37:45;4.80;;;4.30;;
9372;SDS011;10838;52.350;9.790;2023-05-10T14:40:12;6.33;;;5.73;;
9372;SDS011;10838;52.350;9.790;2023-05-10T14:42:41;6.67;;;5.83;;
9372;SDS011;10838;52.350;9.790;2023-05-10T14:45:08;5.93;;;5.43;;
9372;SDS011;10838;52.350;9.790;2023-05-10T14:47:36;6.50;;;5.90;;
9372;SDS011;10838;52.350;9.790;2023-05-10T14:50:03;8.67;;;6.80;;
9372;SDS011;10838;52.350;9.790;2023-05-10T14:52:30;6.87;;;6.17;;
9372;SDS011;10838;52.350;9.790;2023-05-10T14:54:57;7.87;;;7.07;;
9372;SDS011;10838;52.350;9.790;2023-05-10T14:57:26;9.83;;;7.93;;
9372;SDS011;10838;52.350;9.790;2023-05-10T14:59:55;9.93;;;7.83;;
9372;SDS011;10838;52.350;9.790;2023-05-10T15:02:22;8.13;;;7.33;;
9372;SDS011;10838;52.350;9.790;2023-05-10T15:04:48;8.57;;;7.70;;
9372;SDS011;10838;52.350;9.790;2023-05-10T15:07:16;11.73;;;8.40;;
9372;SDS011;10838;52.350;9.790;2023-05-10T15:09:43;11.83;;;8.37;;